createdAt,value
2017-09-08T00:00:04.907Z,1006.26
2017-09-08T00:00:45.496Z,1006.22
2017-09-08T00:01:26.055Z,1006.22
2017-09-08T00:02:06.609Z,1006.18
2017-09-08T00:02:47.161Z,1006.2
2017-09-08T00:03:27.731Z,1006.22
2017-09-08T00:04:08.289Z,1006.2
2017-09-08T00:04:48.853Z,1006.19
2017-09-08T00:05:29.434Z,1006.19
2017-09-08T00:06:10.002Z,1006.2
2017-09-08T00:06:50.566Z,1006.19
2017-09-08T00:07:31.137Z,1006.14
2017-09-08T00:08:11.725Z,1006.15
2017-09-08T00:08:52.314Z,1006.17
2017-09-08T00:09:32.877Z,1006.16
2017-09-08T00:10:13.432Z,1006.14
2017-09-08T00:10:53.992Z,1006.13
2017-09-08T00:11:34.561Z,1006.15
2017-09-08T00:12:15.132Z,1006.17
2017-09-08T00:12:55.691Z,1006.16
2017-09-08T00:13:36.261Z,1006.15
2017-09-08T00:14:16.860Z,1006.13
2017-09-08T00:14:57.419Z,1006.14
2017-09-08T00:15:37.995Z,1006.14
2017-09-08T00:16:18.548Z,1006.18
2017-09-08T00:16:59.112Z,1006.14
2017-09-08T00:17:39.698Z,1006.12
2017-09-08T00:18:20.264Z,1006.14
2017-09-08T00:19:00.841Z,1006.13
2017-09-08T00:19:41.400Z,1006.16
2017-09-08T00:20:21.980Z,1006.14
2017-09-08T00:21:02.546Z,1006.14
2017-09-08T00:21:43.117Z,1006.14
2017-09-08T00:22:26.196Z,1006.12
2017-09-08T00:23:06.755Z,1006.15
2017-09-08T00:23:47.332Z,1006.12
2017-09-08T00:24:27.908Z,1006.11
2017-09-08T00:25:08.466Z,1006.1
2017-09-08T00:25:49.030Z,1006.1
2017-09-08T00:26:29.603Z,1006.11
2017-09-08T00:27:10.158Z,1006.09
2017-09-08T00:27:50.717Z,1006.07
2017-09-08T00:28:31.290Z,1006.05
2017-09-08T00:29:11.858Z,1006.03
2017-09-08T00:29:52.430Z,1006.02
2017-09-08T00:30:33.015Z,1006.03
2017-09-08T00:31:13.584Z,1006
2017-09-08T00:31:54.142Z,1005.97
2017-09-08T00:32:34.737Z,1006.01
2017-09-08T00:33:15.309Z,1006
2017-09-08T00:33:55.872Z,1005.99
2017-09-08T00:34:36.442Z,1005.99
2017-09-08T00:35:17.036Z,1005.98
2017-09-08T00:35:57.646Z,1005.98
2017-09-08T00:36:38.241Z,1005.99
2017-09-08T00:37:18.828Z,1005.95
2017-09-08T00:37:59.407Z,1005.99
2017-09-08T00:38:39.993Z,1005.98
2017-09-08T00:39:20.583Z,1005.97
2017-09-08T00:40:01.152Z,1005.97
2017-09-08T00:40:41.744Z,1005.94
2017-09-08T00:41:22.292Z,1005.98
2017-09-08T00:42:02.854Z,1005.95
2017-09-08T00:42:43.430Z,1005.97
2017-09-08T00:43:23.994Z,1005.97
2017-09-08T00:44:04.561Z,1005.99
2017-09-08T00:44:45.130Z,1005.97
2017-09-08T00:45:25.699Z,1005.96
2017-09-08T00:46:06.262Z,1005.92
2017-09-08T00:46:46.843Z,1005.97
2017-09-08T00:47:27.410Z,1005.97
2017-09-08T00:48:07.978Z,1006
2017-09-08T00:48:48.540Z,1005.93
2017-09-08T00:49:29.129Z,1005.99
2017-09-08T00:50:09.705Z,1005.97
2017-09-08T00:50:50.281Z,1005.94
2017-09-08T00:51:30.861Z,1005.98
2017-09-08T00:52:11.466Z,1005.99
2017-09-08T00:52:52.060Z,1005.96
2017-09-08T00:53:32.631Z,1005.99
2017-09-08T00:54:13.195Z,1005.99
2017-09-08T00:54:53.754Z,1005.97
2017-09-08T00:55:34.314Z,1005.98
2017-09-08T00:56:14.877Z,1005.93
2017-09-08T00:56:55.436Z,1005.95
2017-09-08T00:57:36.011Z,1005.96
2017-09-08T00:58:16.631Z,1005.98
2017-09-08T00:58:57.200Z,1006.01
2017-09-08T00:59:37.799Z,1005.97
2017-09-08T01:00:18.371Z,1005.93
2017-09-08T01:00:58.934Z,1005.92
2017-09-08T01:01:39.530Z,1005.88
2017-09-08T01:02:20.133Z,1005.89
2017-09-08T01:03:00.678Z,1005.88
2017-09-08T01:03:41.236Z,1005.89
2017-09-08T01:04:21.819Z,1005.86
2017-09-08T01:05:02.384Z,1005.84
2017-09-08T01:05:42.959Z,1005.85
2017-09-08T01:06:23.530Z,1005.79
2017-09-08T01:07:04.094Z,1005.84
2017-09-08T01:07:44.660Z,1005.81
2017-09-08T01:08:25.228Z,1005.79
2017-09-08T01:09:05.827Z,1005.81
2017-09-08T01:09:46.419Z,1005.78
2017-09-08T01:10:26.981Z,1005.75
2017-09-08T01:11:07.544Z,1005.74
2017-09-08T01:11:48.112Z,1005.71
2017-09-08T01:12:28.711Z,1005.72
2017-09-08T01:13:09.266Z,1005.66
2017-09-08T01:13:49.835Z,1005.7
2017-09-08T01:14:30.405Z,1005.67
2017-09-08T01:15:10.984Z,1005.67
2017-09-08T01:15:51.548Z,1005.65
2017-09-08T01:16:32.151Z,1005.62
2017-09-08T01:17:12.732Z,1005.64
2017-09-08T01:17:53.299Z,1005.65
2017-09-08T01:18:33.873Z,1005.67
2017-09-08T01:19:14.449Z,1005.64
2017-09-08T01:19:55.008Z,1005.63
2017-09-08T01:20:35.626Z,1005.63
2017-09-08T01:21:16.196Z,1005.6
2017-09-08T01:21:56.757Z,1005.62
2017-09-08T01:22:37.348Z,1005.55
2017-09-08T01:23:17.925Z,1005.57
2017-09-08T01:23:58.512Z,1005.56
2017-09-08T01:24:39.110Z,1005.56
2017-09-08T01:25:19.680Z,1005.5
2017-09-08T01:26:00.262Z,1005.45
2017-09-08T01:26:40.871Z,1005.45
2017-09-08T01:27:21.471Z,1005.39
2017-09-08T01:28:02.053Z,1005.43
2017-09-08T01:28:42.624Z,1005.42
2017-09-08T01:29:23.183Z,1005.43
2017-09-08T01:30:03.747Z,1005.4
2017-09-08T01:30:44.343Z,1005.43
2017-09-08T01:31:24.905Z,1005.39
2017-09-08T01:32:05.465Z,1005.42
2017-09-08T01:32:46.042Z,1005.4
2017-09-08T01:33:26.634Z,1005.44
2017-09-08T01:34:07.199Z,1005.41
2017-09-08T01:34:47.756Z,1005.39
2017-09-08T01:35:28.321Z,1005.39
2017-09-08T01:36:08.879Z,1005.41
2017-09-08T01:36:49.438Z,1005.4
2017-09-08T01:37:30.005Z,1005.39
2017-09-08T01:38:10.575Z,1005.41
2017-09-08T01:38:51.185Z,1005.39
2017-09-08T01:39:31.749Z,1005.39
2017-09-08T01:40:12.313Z,1005.37
2017-09-08T01:40:52.889Z,1005.4
2017-09-08T01:41:33.446Z,1005.34
2017-09-08T01:42:14.018Z,1005.35
2017-09-08T01:42:54.585Z,1005.35
2017-09-08T01:43:35.155Z,1005.37
2017-09-08T01:44:15.738Z,1005.37
2017-09-08T01:44:56.311Z,1005.33
2017-09-08T01:45:36.881Z,1005.33
2017-09-08T01:46:17.452Z,1005.34
2017-09-08T01:46:58.028Z,1005.33
2017-09-08T01:47:38.598Z,1005.32
2017-09-08T01:48:19.159Z,1005.31
2017-09-08T01:48:59.739Z,1005.3
2017-09-08T01:49:40.308Z,1005.27
2017-09-08T01:50:20.872Z,1005.29
2017-09-08T01:51:01.430Z,1005.28
2017-09-08T01:51:42.013Z,1005.24
2017-09-08T01:52:22.572Z,1005.27
2017-09-08T01:53:03.147Z,1005.27
2017-09-08T01:53:43.734Z,1005.25
2017-09-08T01:54:24.325Z,1005.24
2017-09-08T01:55:04.889Z,1005.24
2017-09-08T01:55:45.445Z,1005.25
2017-09-08T01:56:26.004Z,1005.24
2017-09-08T01:57:06.593Z,1005.28
2017-09-08T01:57:47.151Z,1005.25
2017-09-08T01:58:27.724Z,1005.25
2017-09-08T01:59:08.294Z,1005.25
2017-09-08T01:59:48.885Z,1005.24
2017-09-08T02:00:29.451Z,1005.23
2017-09-08T02:01:10.019Z,1005.25
2017-09-08T02:01:50.584Z,1005.23
2017-09-08T02:02:31.161Z,1005.24
2017-09-08T02:03:11.733Z,1005.25
2017-09-08T02:03:52.307Z,1005.23
2017-09-08T02:04:32.868Z,1005.22
2017-09-08T02:05:13.427Z,1005.26
2017-09-08T02:05:54.030Z,1005.22
2017-09-08T02:06:34.596Z,1005.23
2017-09-08T02:07:15.175Z,1005.21
2017-09-08T02:07:55.744Z,1005.27
2017-09-08T02:08:36.333Z,1005.22
2017-09-08T02:09:16.901Z,1005.22
2017-09-08T02:09:57.467Z,1005.24
2017-09-08T02:10:38.017Z,1005.22
2017-09-08T02:11:18.623Z,1005.25
2017-09-08T02:11:59.193Z,1005.25
2017-09-08T02:12:39.770Z,1005.22
2017-09-08T02:13:20.343Z,1005.16
2017-09-08T02:14:00.900Z,1005.16
2017-09-08T02:14:41.476Z,1005.14
2017-09-08T02:15:22.036Z,1005.2
2017-09-08T02:16:02.642Z,1005.15
2017-09-08T02:16:43.223Z,1005.12
2017-09-08T02:17:23.806Z,1005.1
2017-09-08T02:18:04.367Z,1005.08
2017-09-08T02:18:44.961Z,1005.06
2017-09-08T02:19:25.541Z,1005.07
2017-09-08T02:20:06.109Z,1005.05
2017-09-08T02:20:46.683Z,1005.01
2017-09-08T02:21:27.245Z,1005.01
2017-09-08T02:22:07.802Z,1004.99
2017-09-08T02:22:48.449Z,1004.99
2017-09-08T02:23:29.034Z,1005.02
2017-09-08T02:24:09.608Z,1005.03
2017-09-08T02:24:50.181Z,1004.98
2017-09-08T02:25:30.738Z,1005.02
2017-09-08T02:26:11.338Z,1004.92
2017-09-08T02:26:51.932Z,1004.95
2017-09-08T02:27:32.501Z,1004.91
2017-09-08T02:28:13.060Z,1004.9
2017-09-08T02:28:53.626Z,1004.94
2017-09-08T02:29:34.205Z,1004.91
2017-09-08T02:30:14.760Z,1004.89
2017-09-08T02:30:55.325Z,1004.88
2017-09-08T02:31:35.912Z,1004.93
2017-09-08T02:32:16.520Z,1004.85
2017-09-08T02:32:57.080Z,1004.9
2017-09-08T02:33:37.664Z,1004.92
2017-09-08T02:34:18.317Z,1004.94
2017-09-08T02:34:58.892Z,1004.98
2017-09-08T02:35:39.453Z,1004.99
2017-09-08T02:36:20.034Z,1004.99
2017-09-08T02:37:00.596Z,1004.99
2017-09-08T02:37:41.176Z,1005.03
2017-09-08T02:38:21.747Z,1005.01
2017-09-08T02:39:02.307Z,1005.04
2017-09-08T02:39:42.869Z,1005.02
2017-09-08T02:40:23.475Z,1004.98
2017-09-08T02:41:04.062Z,1004.98
2017-09-08T02:41:44.637Z,1004.93
2017-09-08T02:42:25.209Z,1004.94
2017-09-08T02:43:05.769Z,1004.92
2017-09-08T02:43:46.347Z,1004.92
2017-09-08T02:44:26.920Z,1004.9
2017-09-08T02:45:07.488Z,1004.91
2017-09-08T02:45:48.061Z,1004.93
2017-09-08T02:46:28.622Z,1004.96
2017-09-08T02:47:09.199Z,1004.91
2017-09-08T02:47:49.766Z,1004.91
2017-09-08T02:48:30.329Z,1004.93
2017-09-08T02:49:10.889Z,1004.92
2017-09-08T02:49:51.442Z,1004.89
2017-09-08T02:50:32.028Z,1004.88
2017-09-08T02:51:12.602Z,1004.88
2017-09-08T02:51:53.195Z,1004.87
2017-09-08T02:52:33.756Z,1004.87
2017-09-08T02:53:14.350Z,1004.88
2017-09-08T02:53:54.947Z,1004.87
2017-09-08T02:54:35.568Z,1004.83
2017-09-08T02:55:16.138Z,1004.85
2017-09-08T02:55:56.699Z,1004.84
2017-09-08T02:56:37.265Z,1004.82
2017-09-08T02:57:17.833Z,1004.81
2017-09-08T02:57:58.409Z,1004.88
2017-09-08T02:58:38.967Z,1004.83
2017-09-08T02:59:19.528Z,1004.84
2017-09-08T03:00:00.105Z,1004.84
2017-09-08T03:00:40.689Z,1004.89
2017-09-08T03:01:21.278Z,1004.9
2017-09-08T03:02:01.860Z,1004.9
2017-09-08T03:02:42.463Z,1004.87
2017-09-08T03:03:23.055Z,1004.88
2017-09-08T03:04:03.672Z,1004.87
2017-09-08T03:04:44.273Z,1004.89
2017-09-08T03:05:24.942Z,1004.87
2017-09-08T03:06:05.523Z,1004.84
2017-09-08T03:06:46.134Z,1004.83
2017-09-08T03:07:26.708Z,1004.82
2017-09-08T03:08:07.284Z,1004.85
2017-09-08T03:08:47.870Z,1004.83
2017-09-08T03:09:28.431Z,1004.81
2017-09-08T03:10:09.004Z,1004.8
2017-09-08T03:10:49.562Z,1004.8
2017-09-08T03:11:30.146Z,1004.78
2017-09-08T03:12:10.701Z,1004.77
2017-09-08T03:12:51.269Z,1004.79
2017-09-08T03:13:31.843Z,1004.81
2017-09-08T03:14:12.449Z,1004.76
2017-09-08T03:14:53.037Z,1004.74
2017-09-08T03:15:33.610Z,1004.74
2017-09-08T03:16:14.176Z,1004.75
2017-09-08T03:16:54.751Z,1004.71
2017-09-08T03:17:35.351Z,1004.78
2017-09-08T03:18:15.913Z,1004.74
2017-09-08T03:18:56.475Z,1004.72
2017-09-08T03:19:37.060Z,1004.73
2017-09-08T03:20:17.632Z,1004.71
2017-09-08T03:20:58.191Z,1004.67
2017-09-08T03:21:38.753Z,1004.62
2017-09-08T03:22:19.349Z,1004.64
2017-09-08T03:22:59.914Z,1004.6
2017-09-08T03:23:40.510Z,1004.59
2017-09-08T03:24:21.117Z,1004.66
2017-09-08T03:25:01.704Z,1004.61
2017-09-08T03:25:42.274Z,1004.6
2017-09-08T03:26:22.842Z,1004.59
2017-09-08T03:27:03.407Z,1004.58
2017-09-08T03:27:43.966Z,1004.59
2017-09-08T03:28:24.527Z,1004.57
2017-09-08T03:29:05.103Z,1004.58
2017-09-08T03:29:45.704Z,1004.6
2017-09-08T03:30:26.265Z,1004.58
2017-09-08T03:31:06.836Z,1004.56
2017-09-08T03:31:47.401Z,1004.59
2017-09-08T03:32:28.015Z,1004.56
2017-09-08T03:33:08.590Z,1004.52
2017-09-08T03:33:49.213Z,1004.52
2017-09-08T03:34:29.775Z,1004.49
2017-09-08T03:35:10.341Z,1004.48
2017-09-08T03:35:50.934Z,1004.44
2017-09-08T03:36:31.516Z,1004.49
2017-09-08T03:37:12.083Z,1004.54
2017-09-08T03:37:52.665Z,1004.54
2017-09-08T03:38:33.222Z,1004.56
2017-09-08T03:39:13.814Z,1004.54
2017-09-08T03:39:54.382Z,1004.54
2017-09-08T03:40:34.969Z,1004.5
2017-09-08T03:41:15.545Z,1004.54
2017-09-08T03:41:56.141Z,1004.49
2017-09-08T03:42:36.729Z,1004.48
2017-09-08T03:43:17.297Z,1004.47
2017-09-08T03:43:57.861Z,1004.52
2017-09-08T03:44:38.436Z,1004.51
2017-09-08T03:45:19.000Z,1004.5
2017-09-08T03:45:59.612Z,1004.52
2017-09-08T03:46:40.171Z,1004.41
2017-09-08T03:47:20.742Z,1004.52
2017-09-08T03:48:01.335Z,1004.45
2017-09-08T03:48:41.921Z,1004.4
2017-09-08T03:49:22.478Z,1004.45
2017-09-08T03:50:03.046Z,1004.41
2017-09-08T03:50:43.589Z,1004.39
2017-09-08T03:51:24.159Z,1004.38
2017-09-08T03:52:04.731Z,1004.39
2017-09-08T03:52:45.325Z,1004.37
2017-09-08T03:53:25.899Z,1004.35
2017-09-08T03:54:06.473Z,1004.36
2017-09-08T03:54:47.040Z,1004.35
2017-09-08T03:55:27.607Z,1004.32
2017-09-08T03:56:08.190Z,1004.31
2017-09-08T03:56:48.764Z,1004.29
2017-09-08T03:57:29.347Z,1004.31
2017-09-08T03:58:09.927Z,1004.24
2017-09-08T03:58:50.525Z,1004.28
2017-09-08T03:59:31.089Z,1004.25
2017-09-08T04:00:11.725Z,1004.24
2017-09-08T04:00:52.323Z,1004.25
2017-09-08T04:01:32.914Z,1004.3
2017-09-08T04:02:13.482Z,1004.23
2017-09-08T04:02:54.073Z,1004.21
2017-09-08T04:03:34.630Z,1004.26
2017-09-08T04:04:15.180Z,1004.24
2017-09-08T04:04:55.773Z,1004.19
2017-09-08T04:05:36.346Z,1004.25
2017-09-08T04:06:16.925Z,1004.26
2017-09-08T04:06:57.503Z,1004.27
2017-09-08T04:07:38.065Z,1004.26
2017-09-08T04:08:18.660Z,1004.25
2017-09-08T04:08:59.254Z,1004.28
2017-09-08T04:09:39.812Z,1004.28
2017-09-08T04:10:20.419Z,1004.24
2017-09-08T04:11:00.986Z,1004.25
2017-09-08T04:11:41.546Z,1004.26
2017-09-08T04:12:22.124Z,1004.29
2017-09-08T04:13:02.694Z,1004.22
2017-09-08T04:13:43.255Z,1004.21
2017-09-08T04:14:23.814Z,1004.2
2017-09-08T04:15:04.406Z,1004.19
2017-09-08T04:15:44.990Z,1004.15
2017-09-08T04:16:25.557Z,1004.19
2017-09-08T04:17:06.150Z,1004.17
2017-09-08T04:17:46.717Z,1004.21
2017-09-08T04:18:27.272Z,1004.16
2017-09-08T04:19:07.842Z,1004.16
2017-09-08T04:19:48.411Z,1004.13
2017-09-08T04:20:28.984Z,1004.11
2017-09-08T04:21:09.546Z,1004.13
2017-09-08T04:21:50.130Z,1004.11
2017-09-08T04:22:30.685Z,1004.06
2017-09-08T04:23:11.248Z,1004.1
2017-09-08T04:23:51.805Z,1004.07
2017-09-08T04:24:32.400Z,1004.05
2017-09-08T04:25:13.001Z,1004.09
2017-09-08T04:25:53.575Z,1004.03
2017-09-08T04:26:34.147Z,1004.01
2017-09-08T04:27:14.719Z,1004.02
2017-09-08T04:27:55.308Z,1004.06
2017-09-08T04:28:35.885Z,1004.07
2017-09-08T04:29:16.447Z,1004.05
2017-09-08T04:29:57.042Z,1004.06
2017-09-08T04:30:37.623Z,1004.01
2017-09-08T04:31:18.202Z,1004.05
2017-09-08T04:31:58.767Z,1004.01
2017-09-08T04:32:39.348Z,1004.02
2017-09-08T04:33:19.923Z,1004.01
2017-09-08T04:34:00.484Z,1004.03
2017-09-08T04:34:41.066Z,1004.03
2017-09-08T04:35:21.636Z,1004.02
2017-09-08T04:36:02.220Z,1004.02
2017-09-08T04:36:42.852Z,1004.07
2017-09-08T04:37:23.438Z,1004.02
2017-09-08T04:38:04.027Z,1004.01
2017-09-08T04:38:44.598Z,1004
2017-09-08T04:39:25.186Z,1004.02
2017-09-08T04:40:05.767Z,1004
2017-09-08T04:40:46.324Z,1003.96
2017-09-08T04:41:26.941Z,1003.98
2017-09-08T04:42:07.507Z,1003.96
2017-09-08T04:42:48.127Z,1004
2017-09-08T04:43:28.693Z,1003.97
2017-09-08T04:44:09.260Z,1003.94
2017-09-08T04:44:49.863Z,1003.96
2017-09-08T04:45:30.424Z,1003.95
2017-09-08T04:46:10.999Z,1003.95
2017-09-08T04:46:51.583Z,1003.94
2017-09-08T04:47:32.190Z,1003.91
2017-09-08T04:48:12.774Z,1003.9
2017-09-08T04:48:53.345Z,1003.91
2017-09-08T04:49:33.901Z,1003.87
2017-09-08T04:50:14.471Z,1003.92
2017-09-08T04:50:55.057Z,1003.87
2017-09-08T04:51:35.634Z,1003.89
2017-09-08T04:52:16.213Z,1003.89
2017-09-08T04:52:56.776Z,1003.91
2017-09-08T04:53:37.376Z,1003.88
2017-09-08T04:54:17.946Z,1003.86
2017-09-08T04:54:58.504Z,1003.88
2017-09-08T04:55:39.066Z,1003.83
2017-09-08T04:56:19.625Z,1003.86
2017-09-08T04:57:00.184Z,1003.88
2017-09-08T04:57:40.753Z,1003.87
2017-09-08T04:58:21.323Z,1003.89
2017-09-08T04:59:01.916Z,1003.86
2017-09-08T04:59:42.490Z,1003.88
2017-09-08T05:00:23.048Z,1003.9
2017-09-08T05:01:03.611Z,1003.89
2017-09-08T05:01:44.172Z,1003.88
2017-09-08T05:02:24.742Z,1003.91
2017-09-08T05:03:05.313Z,1003.89
2017-09-08T05:03:45.879Z,1003.88
2017-09-08T05:04:26.480Z,1003.88
2017-09-08T05:05:07.066Z,1003.9
2017-09-08T05:05:47.648Z,1003.85
2017-09-08T05:06:28.210Z,1003.83
2017-09-08T05:07:08.776Z,1003.82
2017-09-08T05:07:49.339Z,1003.82
2017-09-08T05:08:29.896Z,1003.81
2017-09-08T05:09:10.470Z,1003.81
2017-09-08T05:09:51.035Z,1003.77
2017-09-08T05:10:31.590Z,1003.79
2017-09-08T05:11:12.154Z,1003.79
2017-09-08T05:11:52.716Z,1003.74
2017-09-08T05:12:33.306Z,1003.76
2017-09-08T05:13:13.876Z,1003.76
2017-09-08T05:13:54.433Z,1003.76
2017-09-08T05:14:35.010Z,1003.82
2017-09-08T05:15:15.570Z,1003.75
2017-09-08T05:15:56.145Z,1003.75
2017-09-08T05:16:36.713Z,1003.79
2017-09-08T05:17:17.316Z,1003.77
2017-09-08T05:17:57.863Z,1003.71
2017-09-08T05:18:38.428Z,1003.73
2017-09-08T05:19:18.985Z,1003.77
2017-09-08T05:19:59.587Z,1003.76
2017-09-08T05:20:40.147Z,1003.76
2017-09-08T05:21:20.725Z,1003.75
2017-09-08T05:22:01.291Z,1003.74
2017-09-08T05:22:41.854Z,1003.72
2017-09-08T05:23:22.432Z,1003.72
2017-09-08T05:24:03.028Z,1003.71
2017-09-08T05:24:43.619Z,1003.7
2017-09-08T05:25:24.172Z,1003.71
2017-09-08T05:26:04.745Z,1003.67
2017-09-08T05:26:45.321Z,1003.69
2017-09-08T05:27:25.896Z,1003.66
2017-09-08T05:28:06.477Z,1003.71
2017-09-08T05:28:47.056Z,1003.68
2017-09-08T05:29:27.644Z,1003.7
2017-09-08T05:30:08.195Z,1003.7
2017-09-08T05:30:48.773Z,1003.71
2017-09-08T05:31:29.377Z,1003.68
2017-09-08T05:32:09.939Z,1003.65
2017-09-08T05:32:50.511Z,1003.71
2017-09-08T05:33:31.080Z,1003.71
2017-09-08T05:34:11.648Z,1003.71
2017-09-08T05:34:52.210Z,1003.71
2017-09-08T05:35:32.784Z,1003.66
2017-09-08T05:36:13.363Z,1003.67
2017-09-08T05:36:53.929Z,1003.67
2017-09-08T05:37:34.501Z,1003.67
2017-09-08T05:38:15.061Z,1003.66
2017-09-08T05:38:55.663Z,1003.69
2017-09-08T05:39:36.301Z,1003.62
2017-09-08T05:40:16.848Z,1003.7
2017-09-08T05:40:57.416Z,1003.7
2017-09-08T05:41:37.979Z,1003.71
2017-09-08T05:42:18.544Z,1003.76
2017-09-08T05:42:59.120Z,1003.73
2017-09-08T05:43:39.733Z,1003.74
2017-09-08T05:44:20.312Z,1003.7
2017-09-08T05:45:00.885Z,1003.72
2017-09-08T05:45:41.450Z,1003.7
2017-09-08T05:46:22.021Z,1003.7
2017-09-08T05:47:02.603Z,1003.69
2017-09-08T05:47:43.200Z,1003.65
2017-09-08T05:48:23.790Z,1003.71
2017-09-08T05:49:04.339Z,1003.71
2017-09-08T05:49:44.916Z,1003.73
2017-09-08T05:50:25.519Z,1003.7
2017-09-08T05:51:06.108Z,1003.73
2017-09-08T05:51:47.038Z,1003.71
2017-09-08T05:52:27.617Z,1003.8
2017-09-08T05:53:08.161Z,1003.78
2017-09-08T05:53:48.737Z,1003.73
2017-09-08T05:54:29.307Z,1003.79
2017-09-08T05:55:09.899Z,1003.76
2017-09-08T05:55:50.474Z,1003.75
2017-09-08T05:56:31.030Z,1003.73
2017-09-08T05:57:11.826Z,1003.73
2017-09-08T05:57:52.385Z,1003.67
2017-09-08T05:58:32.984Z,1003.68
2017-09-08T05:59:13.549Z,1003.65
2017-09-08T05:59:54.137Z,1003.66
2017-09-08T06:00:34.828Z,1003.65
2017-09-08T06:01:15.394Z,1003.65
2017-09-08T06:01:56.011Z,1003.65
2017-09-08T06:02:36.835Z,1003.66
2017-09-08T06:03:17.844Z,1003.64
2017-09-08T06:03:58.577Z,1003.62
2017-09-08T06:04:39.135Z,1003.6
2017-09-08T06:05:19.764Z,1003.59
2017-09-08T06:06:00.431Z,1003.54
2017-09-08T06:06:41.048Z,1003.51
2017-09-08T06:07:21.603Z,1003.5
2017-09-08T06:08:02.204Z,1003.49
2017-09-08T06:08:42.772Z,1003.46
2017-09-08T06:09:23.419Z,1003.42
2017-09-08T06:10:04.203Z,1003.38
2017-09-08T06:10:44.779Z,1003.41
2017-09-08T06:11:25.438Z,1003.41
2017-09-08T06:12:05.986Z,1003.39
2017-09-08T06:12:46.552Z,1003.43
2017-09-08T06:13:27.116Z,1003.39
2017-09-08T06:14:07.685Z,1003.35
2017-09-08T06:14:48.261Z,1003.33
2017-09-08T06:15:28.879Z,1003.3
2017-09-08T06:16:09.440Z,1003.24
2017-09-08T06:16:49.996Z,1003.29
2017-09-08T06:17:30.624Z,1003.26
2017-09-08T06:18:11.193Z,1003.24
2017-09-08T06:18:51.793Z,1003.26
2017-09-08T06:19:32.380Z,1003.27
2017-09-08T06:20:12.956Z,1003.25
2017-09-08T06:20:53.526Z,1003.24
2017-09-08T06:21:34.100Z,1003.27
2017-09-08T06:22:14.708Z,1003.2
2017-09-08T06:22:55.321Z,1003.22
2017-09-08T06:23:35.906Z,1003.2
2017-09-08T06:24:16.600Z,1003.23
2017-09-08T06:24:57.206Z,1003.23
2017-09-08T06:25:37.799Z,1003.19
2017-09-08T06:26:18.437Z,1003.23
2017-09-08T06:26:59.306Z,1003.25
2017-09-08T06:27:40.464Z,1003.24
2017-09-08T06:28:21.497Z,1003.24
2017-09-08T06:29:02.080Z,1003.21
2017-09-08T06:29:42.675Z,1003.21
2017-09-08T06:30:23.255Z,1003.17
2017-09-08T06:31:03.857Z,1003.19
2017-09-08T06:31:44.654Z,1003.19
2017-09-08T06:32:25.219Z,1003.13
2017-09-08T06:33:05.815Z,1003.11
2017-09-08T06:33:46.543Z,1003.1
2017-09-08T06:34:27.085Z,1003.11
2017-09-08T06:35:07.742Z,1003.08
2017-09-08T06:35:48.639Z,1003.07
2017-09-08T06:36:29.205Z,1003.1
2017-09-08T06:37:09.931Z,1003.05
2017-09-08T06:37:50.621Z,1003.05
2017-09-08T06:38:31.218Z,1003.03
2017-09-08T06:39:11.778Z,1003.07
2017-09-08T06:39:52.346Z,1003.05
2017-09-08T06:40:32.976Z,1003.09
2017-09-08T06:41:13.814Z,1003.04
2017-09-08T06:41:54.373Z,1003.05
2017-09-08T06:42:35.141Z,1003.05
2017-09-08T06:43:15.720Z,1003.05
2017-09-08T06:43:56.492Z,1003.03
2017-09-08T06:44:37.124Z,1003.04
2017-09-08T06:45:17.684Z,1003.06
2017-09-08T06:45:58.250Z,1003.04
2017-09-08T06:46:38.835Z,1003.05
2017-09-08T06:47:19.403Z,1003.08
2017-09-08T06:47:59.971Z,1003.07
2017-09-08T06:48:40.538Z,1003.06
2017-09-08T06:49:21.116Z,1003.07
2017-09-08T06:50:01.689Z,1003.04
2017-09-08T06:50:42.269Z,1003.06
2017-09-08T06:51:22.988Z,1003.04
2017-09-08T06:52:03.570Z,1003.02
2017-09-08T06:52:44.248Z,1003.02
2017-09-08T06:53:24.799Z,1003.05
2017-09-08T06:54:05.494Z,1003.04
2017-09-08T06:54:46.068Z,1003.05
2017-09-08T06:55:26.630Z,1003.01
2017-09-08T06:56:07.258Z,1003.01
2017-09-08T06:56:47.835Z,1003.01
2017-09-08T06:57:28.412Z,1002.99
2017-09-08T06:58:08.970Z,1002.98
2017-09-08T06:58:49.553Z,1002.98
2017-09-08T06:59:30.160Z,1003
2017-09-08T07:00:10.714Z,1003.04
2017-09-08T07:00:51.278Z,1003.01
2017-09-08T07:01:31.880Z,1003.01
2017-09-08T07:02:12.441Z,1003.02
2017-09-08T07:02:52.998Z,1003
2017-09-08T07:03:33.582Z,1003
2017-09-08T07:04:14.161Z,1002.98
2017-09-08T07:04:54.737Z,1002.98
2017-09-08T07:05:35.297Z,1002.98
2017-09-08T07:06:15.872Z,1003.01
2017-09-08T07:06:56.434Z,1002.99
2017-09-08T07:07:37.112Z,1002.98
2017-09-08T07:08:17.668Z,1002.95
2017-09-08T07:08:58.232Z,1002.94
2017-09-08T07:09:38.799Z,1002.97
2017-09-08T07:10:19.398Z,1002.93
2017-09-08T07:10:59.961Z,1002.91
2017-09-08T07:11:40.552Z,1002.89
2017-09-08T07:12:21.126Z,1002.88
2017-09-08T07:13:01.692Z,1002.89
2017-09-08T07:13:42.254Z,1002.87
2017-09-08T07:14:22.840Z,1002.88
2017-09-08T07:15:03.676Z,1002.85
2017-09-08T07:15:44.260Z,1002.86
2017-09-08T07:16:24.838Z,1002.87
2017-09-08T07:17:05.433Z,1002.86
2017-09-08T07:17:46.000Z,1002.91
2017-09-08T07:18:26.691Z,1002.91
2017-09-08T07:19:07.258Z,1002.91
2017-09-08T07:19:47.845Z,1002.87
2017-09-08T07:20:28.422Z,1002.81
2017-09-08T07:21:09.003Z,1002.89
2017-09-08T07:21:49.946Z,1002.87
2017-09-08T07:22:30.533Z,1002.85
2017-09-08T07:23:11.150Z,1002.89
2017-09-08T07:23:51.745Z,1002.89
2017-09-08T07:24:32.307Z,1002.87
2017-09-08T07:25:12.891Z,1002.89
2017-09-08T07:25:53.456Z,1002.89
2017-09-08T07:26:34.028Z,1002.9
2017-09-08T07:27:14.617Z,1002.86
2017-09-08T07:27:55.173Z,1002.86
2017-09-08T07:28:35.746Z,1002.86
2017-09-08T07:29:16.325Z,1002.87
2017-09-08T07:29:56.920Z,1002.9
2017-09-08T07:30:37.473Z,1002.9
2017-09-08T07:31:18.056Z,1002.89
2017-09-08T07:31:58.624Z,1002.86
2017-09-08T07:32:39.191Z,1002.89
2017-09-08T07:33:19.770Z,1002.84
2017-09-08T07:34:00.331Z,1002.87
2017-09-08T07:34:40.907Z,1002.87
2017-09-08T07:35:21.462Z,1002.88
2017-09-08T07:36:02.156Z,1002.83
2017-09-08T07:36:42.739Z,1002.85
2017-09-08T07:37:23.320Z,1002.82
2017-09-08T07:38:03.937Z,1002.81
2017-09-08T07:38:44.538Z,1002.78
2017-09-08T07:39:25.097Z,1002.82
2017-09-08T07:40:05.691Z,1002.84
2017-09-08T07:40:46.280Z,1002.81
2017-09-08T07:41:26.893Z,1002.85
2017-09-08T07:42:07.508Z,1002.84
2017-09-08T07:42:48.090Z,1002.79
2017-09-08T07:43:28.671Z,1002.76
2017-09-08T07:44:09.250Z,1002.85
2017-09-08T07:44:49.843Z,1002.81
2017-09-08T07:45:30.436Z,1002.81
2017-09-08T07:46:11.084Z,1002.78
2017-09-08T07:46:51.648Z,1002.79
2017-09-08T07:47:32.218Z,1002.74
2017-09-08T07:48:12.791Z,1002.8
2017-09-08T07:48:53.366Z,1002.82
2017-09-08T07:49:33.951Z,1002.83
2017-09-08T07:50:14.527Z,1002.83
2017-09-08T07:50:55.088Z,1002.82
2017-09-08T07:51:35.657Z,1002.77
2017-09-08T07:52:16.240Z,1002.82
2017-09-08T07:52:56.809Z,1002.82
2017-09-08T07:53:37.358Z,1002.82
2017-09-08T07:54:17.930Z,1002.77
2017-09-08T07:54:58.522Z,1002.76
2017-09-08T07:55:39.094Z,1002.77
2017-09-08T07:56:19.675Z,1002.68
2017-09-08T07:57:00.262Z,1002.73
2017-09-08T07:57:40.826Z,1002.78
2017-09-08T07:58:21.414Z,1002.8
2017-09-08T07:59:01.983Z,1002.78
2017-09-08T07:59:42.545Z,1002.75
2017-09-08T08:00:23.128Z,1002.74
2017-09-08T08:01:03.721Z,1002.68
2017-09-08T08:01:44.305Z,1002.67
2017-09-08T08:02:24.874Z,1002.7
2017-09-08T08:03:05.437Z,1002.7
2017-09-08T08:03:46.025Z,1002.74
2017-09-08T08:04:26.598Z,1002.71
2017-09-08T08:05:07.150Z,1002.73
2017-09-08T08:05:47.730Z,1002.69
2017-09-08T08:06:28.364Z,1002.66
2017-09-08T08:07:08.930Z,1002.59
2017-09-08T08:07:49.494Z,1002.63
2017-09-08T08:08:30.072Z,1002.66
2017-09-08T08:09:10.643Z,1002.66
2017-09-08T08:09:51.196Z,1002.68
2017-09-08T08:10:31.772Z,1002.57
2017-09-08T08:11:12.341Z,1002.63
2017-09-08T08:11:52.943Z,1002.64
2017-09-08T08:12:33.524Z,1002.6